sensor_id;sensor_type;location;lat;lon;timestamp;P1;durP1;ratioP1;P2;durP2;ratioP2
4698;SDS011;33708;49.466;11.176;2022-12-07T00:01:17;13.20;;;7.10;;
4698;SDS011;33708;49.466;11.176;2022-12-07T00:03:45;17.53;;;8.00;;
4698;SDS011;33708;49.466;11.176;2022-12-07T00:06:13;16.60;;;7.47;;
4698;SDS011;33708;49.466;11.176;2022-12-07T00:08:40;14.00;;;7.77;;
4698;SDS011;33708;49.466;11.176;2022-12-07T00:11:13;14.60;;;7.97;;
4698;SDS011;33708;49.466;11.176;2022-12-07T00:13:40;17.13;;;8.00;;
4698;SDS011;33708;49.466;11.176;2022-12-07T00:16:14;13.77;;;7.73;;
4698;SDS011;33708;49.466;11.176;2022-12-07T00:18:42;15.60;;;7.70;;
4698;SDS011;33708;49.466;11.176;2022-12-07T00:21:12;15.87;;;8.27;;
4698;SDS011;33708;49.466;11.176;2022-12-07T00:23:43;14.20;;;8.20;;
4698;SDS011;33708;49.466;11.176;2022-12-07T00:26:14;16.00;;;7.50;;
4698;SDS011;33708;49.466;11.176;2022-12-07T00:28:44;15.30;;;8.10;;
4698;SDS011;33708;49.466;11.176;2022-12-07T00:31:14;16.00;;;8.33;;
4698;SDS011;33708;49.466;11.176;2022-12-07T00:33:41;14.97;;;8.40;;
4698;SDS011;33708;49.466;11.176;2022-12-07T00:36:08;14.97;;;8.17;;
4698;SDS011;33708;49.466;11.176;2022-12-07T00:38:37;17.20;;;8.27;;
4698;SDS011;33708;49.466;11.176;2022-12-07T00:41:04;15.70;;;8.10;;
4698;SDS011;33708;49.466;11.176;2022-12-07T00:43:38;13.73;;;7.70;;
4698;SDS011;33708;49.466;11.176;2022-12-07T00:46:04;17.37;;;8.80;;
4698;SDS011;33708;49.466;11.176;2022-12-07T00:48:30;16.47;;;8.63;;
4698;SDS011;33708;49.466;11.176;2022-12-07T00:50:56;16.73;;;8.53;;
4698;SDS011;33708;49.466;11.176;2022-12-07T00:53:22;14.50;;;8.20;;
4698;SDS011;33708;49.466;11.176;2022-12-07T00:55:48;16.00;;;8.40;;
4698;SDS011;33708;49.466;11.176;2022-12-07T00:58:13;15.83;;;8.50;;
4698;SDS011;33708;49.466;11.176;2022-12-07T01:00:40;16.07;;;8.70;;
4698;SDS011;33708;49.466;11.176;2022-12-07T01:03:07;14.67;;;8.73;;
4698;SDS011;33708;49.466;11.176;2022-12-07T01:05:35;16.70;;;9.33;;
4698;SDS011;33708;49.466;11.176;2022-12-07T01:08:01;16.20;;;8.80;;
4698;SDS011;33708;49.466;11.176;2022-12-07T01:10:28;16.17;;;9.50;;
4698;SDS011;33708;49.466;11.176;2022-12-07T01:12:55;13.87;;;8.20;;
4698;SDS011;33708;49.466;11.176;2022-12-07T01:15:21;16.83;;;8.77;;
4698;SDS011;33708;49.466;11.176;2022-12-07T01:17:47;15.07;;;8.30;;
4698;SDS011;33708;49.466;11.176;2022-12-07T01:20:13;15.40;;;7.93;;
4698;SDS011;33708;49.466;11.176;2022-12-07T01:22:41;16.23;;;8.00;;
4698;SDS011;33708;49.466;11.176;2022-12-07T01:25:08;16.73;;;9.30;;
4698;SDS011;33708;49.466;11.176;2022-12-07T01:27:34;15.43;;;8.90;;
4698;SDS011;33708;49.466;11.176;2022-12-07T01:30:00;15.03;;;8.83;;
4698;SDS011;33708;49.466;11.176;2022-12-07T01:32:26;19.37;;;9.10;;
4698;SDS011;33708;49.466;11.176;2022-12-07T01:34:52;16.13;;;8.13;;
4698;SDS011;33708;49.466;11.176;2022-12-07T01:37:18;15.87;;;9.37;;
4698;SDS011;33708;49.466;11.176;2022-12-07T01:39:43;16.40;;;9.00;;
4698;SDS011;33708;49.466;11.176;2022-12-07T01:42:12;16.23;;;9.20;;
4698;SDS011;33708;49.466;11.176;2022-12-07T01:45:14;16.97;;;9.40;;
4698;SDS011;33708;49.466;11.176;2022-12-07T01:48:02;17.43;;;9.77;;
4698;SDS011;33708;49.466;11.176;2022-12-07T01:50:31;15.60;;;9.17;;
4698;SDS011;33708;49.466;11.176;2022-12-07T01:52:58;15.90;;;9.03;;
4698;SDS011;33708;49.466;11.176;2022-12-07T01:55:30;16.27;;;9.93;;
4698;SDS011;33708;49.466;11.176;2022-12-07T01:57:57;16.77;;;9.37;;
4698;SDS011;33708;49.466;11.176;2022-12-07T02:00:25;16.60;;;9.40;;
4698;SDS011;33708;49.466;11.176;2022-12-07T02:02:55;17.30;;;10.27;;
4698;SDS011;33708;49.466;11.176;2022-12-07T02:05:32;20.30;;;10.60;;
4698;SDS011;33708;49.466;11.176;2022-12-07T02:08:02;16.87;;;9.30;;
4698;SDS011;33708;49.466;11.176;2022-12-07T02:10:33;16.80;;;9.07;;
4698;SDS011;33708;49.466;11.176;2022-12-07T02:13:16;17.90;;;9.90;;
4698;SDS011;33708;49.466;11.176;2022-12-07T02:18:36;19.10;;;10.30;;
4698;SDS011;33708;49.466;11.176;2022-12-07T02:21:29;18.03;;;10.60;;
4698;SDS011;33708;49.466;11.176;2022-12-07T02:24:11;17.57;;;10.30;;
4698;SDS011;33708;49.466;11.176;2022-12-07T02:33:03;19.60;;;11.10;;
4698;SDS011;33708;49.466;11.176;2022-12-07T02:35:35;19.13;;;11.17;;
4698;SDS011;33708;49.466;11.176;2022-12-07T02:38:26;18.20;;;10.80;;
4698;SDS011;33708;49.466;11.176;2022-12-07T02:46:01;19.60;;;11.80;;
4698;SDS011;33708;49.466;11.176;2022-12-07T02:48:32;20.80;;;11.33;;
4698;SDS011;33708;49.466;11.176;2022-12-07T02:50:58;19.77;;;11.60;;
4698;SDS011;33708;49.466;11.176;2022-12-07T02:53:28;20.07;;;11.10;;
4698;SDS011;33708;49.466;11.176;2022-12-07T02:56:07;22.60;;;11.77;;
4698;SDS011;33708;49.466;11.176;2022-12-07T03:13:14;21.47;;;12.13;;
4698;SDS011;33708;49.466;11.176;2022-12-07T03:18:30;22.40;;;13.10;;
4698;SDS011;33708;49.466;11.176;2022-12-07T03:21:02;21.10;;;12.80;;
4698;SDS011;33708;49.466;11.176;2022-12-07T03:23:33;23.60;;;13.90;;
4698;SDS011;33708;49.466;11.176;2022-12-07T03:26:02;26.57;;;13.93;;
4698;SDS011;33708;49.466;11.176;2022-12-07T03:28:33;23.13;;;12.97;;
4698;SDS011;33708;49.466;11.176;2022-12-07T03:31:03;20.10;;;11.90;;
4698;SDS011;33708;49.466;11.176;2022-12-07T03:33:41;23.27;;;12.70;;
4698;SDS011;33708;49.466;11.176;2022-12-07T03:36:26;26.23;;;13.20;;
4698;SDS011;33708;49.466;11.176;2022-12-07T03:41:33;20.20;;;11.40;;
4698;SDS011;33708;49.466;11.176;2022-12-07T03:44:01;21.80;;;12.07;;
4698;SDS011;33708;49.466;11.176;2022-12-07T03:46:44;22.43;;;12.57;;
4698;SDS011;33708;49.466;11.176;2022-12-07T03:49:27;20.23;;;11.20;;
4698;SDS011;33708;49.466;11.176;2022-12-07T03:54:36;25.60;;;11.53;;
4698;SDS011;33708;49.466;11.176;2022-12-07T03:57:13;29.30;;;13.30;;
4698;SDS011;33708;49.466;11.176;2022-12-07T03:59:40;29.17;;;12.57;;
4698;SDS011;33708;49.466;11.176;2022-12-07T04:02:07;25.83;;;13.57;;
4698;SDS011;33708;49.466;11.176;2022-12-07T04:04:35;24.27;;;13.73;;
4698;SDS011;33708;49.466;11.176;2022-12-07T04:07:01;25.33;;;13.80;;
4698;SDS011;33708;49.466;11.176;2022-12-07T04:09:27;24.27;;;12.93;;
4698;SDS011;33708;49.466;11.176;2022-12-07T04:11:53;23.43;;;13.10;;
4698;SDS011;33708;49.466;11.176;2022-12-07T04:14:19;27.50;;;14.53;;
4698;SDS011;33708;49.466;11.176;2022-12-07T04:16:49;25.43;;;13.10;;
4698;SDS011;33708;49.466;11.176;2022-12-07T04:19:16;23.80;;;13.10;;
4698;SDS011;33708;49.466;11.176;2022-12-07T04:21:43;25.63;;;12.80;;
4698;SDS011;33708;49.466;11.176;2022-12-07T04:24:10;22.70;;;12.67;;
4698;SDS011;33708;49.466;11.176;2022-12-07T04:26:37;26.50;;;14.53;;
4698;SDS011;33708;49.466;11.176;2022-12-07T04:29:02;25.60;;;12.23;;
4698;SDS011;33708;49.466;11.176;2022-12-07T04:31:28;23.40;;;13.33;;
4698;SDS011;33708;49.466;11.176;2022-12-07T04:33:53;21.50;;;11.17;;
4698;SDS011;33708;49.466;11.176;2022-12-07T04:36:19;23.30;;;13.30;;
4698;SDS011;33708;49.466;11.176;2022-12-07T04:38:45;24.37;;;11.27;;
4698;SDS011;33708;49.466;11.176;2022-12-07T04:41:11;22.87;;;12.47;;
4698;SDS011;33708;49.466;11.176;2022-12-07T04:43:37;22.40;;;13.10;;
4698;SDS011;33708;49.466;11.176;2022-12-07T04:46:03;22.80;;;13.30;;
4698;SDS011;33708;49.466;11.176;2022-12-07T04:48:29;23.43;;;13.37;;
4698;SDS011;33708;49.466;11.176;2022-12-07T04:50:55;23.70;;;12.70;;
4698;SDS011;33708;49.466;11.176;2022-12-07T04:53:21;21.27;;;12.13;;
4698;SDS011;33708;49.466;11.176;2022-12-07T04:55:47;23.10;;;12.47;;
4698;SDS011;33708;49.466;11.176;2022-12-07T04:58:13;22.17;;;12.97;;
4698;SDS011;33708;49.466;11.176;2022-12-07T05:00:39;21.23;;;11.60;;
4698;SDS011;33708;49.466;11.176;2022-12-07T05:03:04;24.53;;;14.03;;
4698;SDS011;33708;49.466;11.176;2022-12-07T05:05:30;21.60;;;12.40;;
4698;SDS011;33708;49.466;11.176;2022-12-07T05:07:56;23.37;;;12.70;;
4698;SDS011;33708;49.466;11.176;2022-12-07T05:10:22;23.50;;;11.83;;
4698;SDS011;33708;49.466;11.176;2022-12-07T05:12:47;30.17;;;12.70;;
4698;SDS011;33708;49.466;11.176;2022-12-07T05:15:14;22.80;;;13.87;;
4698;SDS011;33708;49.466;11.176;2022-12-07T05:17:40;20.40;;;12.13;;
4698;SDS011;33708;49.466;11.176;2022-12-07T05:20:07;26.40;;;14.20;;
4698;SDS011;33708;49.466;11.176;2022-12-07T05:22:33;22.50;;;13.87;;
4698;SDS011;33708;49.466;11.176;2022-12-07T05:24:59;24.70;;;12.77;;
4698;SDS011;33708;49.466;11.176;2022-12-07T05:27:24;33.90;;;13.60;;
4698;SDS011;33708;49.466;11.176;2022-12-07T05:29:50;24.87;;;13.90;;
4698;SDS011;33708;49.466;11.176;2022-12-07T05:32:16;28.90;;;14.80;;
4698;SDS011;33708;49.466;11.176;2022-12-07T05:34:42;30.83;;;15.43;;
4698;SDS011;33708;49.466;11.176;2022-12-07T05:37:08;24.77;;;13.40;;
4698;SDS011;33708;49.466;11.176;2022-12-07T05:39:33;25.70;;;14.37;;
4698;SDS011;33708;49.466;11.176;2022-12-07T05:41:59;25.43;;;14.10;;
4698;SDS011;33708;49.466;11.176;2022-12-07T05:44:37;25.10;;;13.53;;
4698;SDS011;33708;49.466;11.176;2022-12-07T05:47:03;27.30;;;15.27;;
4698;SDS011;33708;49.466;11.176;2022-12-07T05:49:29;24.17;;;15.00;;
4698;SDS011;33708;49.466;11.176;2022-12-07T05:51:55;25.73;;;15.63;;
4698;SDS011;33708;49.466;11.176;2022-12-07T05:54:21;25.40;;;14.27;;
4698;SDS011;33708;49.466;11.176;2022-12-07T05:56:47;33.73;;;15.30;;
4698;SDS011;33708;49.466;11.176;2022-12-07T05:59:13;27.63;;;14.10;;
4698;SDS011;33708;49.466;11.176;2022-12-07T06:01:55;26.53;;;15.63;;
4698;SDS011;33708;49.466;11.176;2022-12-07T06:04:22;27.83;;;14.33;;
4698;SDS011;33708;49.466;11.176;2022-12-07T06:06:49;25.13;;;15.10;;
4698;SDS011;33708;49.466;11.176;2022-12-07T06:09:15;26.83;;;16.47;;
4698;SDS011;33708;49.466;11.176;2022-12-07T06:11:43;31.20;;;16.10;;
4698;SDS011;33708;49.466;11.176;2022-12-07T06:14:27;30.50;;;14.13;;
4698;SDS011;33708;49.466;11.176;2022-12-07T06:16:53;25.73;;;15.07;;
4698;SDS011;33708;49.466;11.176;2022-12-07T06:19:20;23.40;;;14.13;;
4698;SDS011;33708;49.466;11.176;2022-12-07T06:21:46;26.57;;;13.40;;
4698;SDS011;33708;49.466;11.176;2022-12-07T06:24:12;24.60;;;13.63;;
4698;SDS011;33708;49.466;11.176;2022-12-07T06:26:39;26.83;;;14.30;;
4698;SDS011;33708;49.466;11.176;2022-12-07T06:29:05;24.00;;;13.57;;
4698;SDS011;33708;49.466;11.176;2022-12-07T06:31:31;26.13;;;14.77;;
4698;SDS011;33708;49.466;11.176;2022-12-07T06:34:04;28.00;;;14.20;;
4698;SDS011;33708;49.466;11.176;2022-12-07T06:36:31;26.87;;;15.47;;
4698;SDS011;33708;49.466;11.176;2022-12-07T06:38:57;31.00;;;16.23;;
4698;SDS011;33708;49.466;11.176;2022-12-07T06:41:23;24.30;;;14.03;;
4698;SDS011;33708;49.466;11.176;2022-12-07T06:43:49;24.83;;;13.47;;
4698;SDS011;33708;49.466;11.176;2022-12-07T06:46:15;26.93;;;15.20;;
4698;SDS011;33708;49.466;11.176;2022-12-07T06:48:41;27.97;;;16.00;;
4698;SDS011;33708;49.466;11.176;2022-12-07T06:51:08;28.30;;;16.80;;
4698;SDS011;33708;49.466;11.176;2022-12-07T06:53:34;29.53;;;15.90;;
4698;SDS011;33708;49.466;11.176;2022-12-07T06:56:01;27.20;;;15.33;;
4698;SDS011;33708;49.466;11.176;2022-12-07T06:58:27;27.77;;;16.70;;
4698;SDS011;33708;49.466;11.176;2022-12-07T07:00:53;32.13;;;18.93;;
4698;SDS011;33708;49.466;11.176;2022-12-07T07:03:18;30.60;;;16.60;;
4698;SDS011;33708;49.466;11.176;2022-12-07T07:05:44;30.37;;;18.03;;
4698;SDS011;33708;49.466;11.176;2022-12-07T07:08:10;28.57;;;16.60;;
4698;SDS011;33708;49.466;11.176;2022-12-07T07:10:37;29.23;;;16.90;;
4698;SDS011;33708;49.466;11.176;2022-12-07T07:13:03;24.80;;;14.53;;
4698;SDS011;33708;49.466;11.176;2022-12-07T07:15:29;29.03;;;16.30;;
4698;SDS011;33708;49.466;11.176;2022-12-07T07:17:55;34.90;;;18.60;;
4698;SDS011;33708;49.466;11.176;2022-12-07T07:20:21;28.97;;;16.97;;
4698;SDS011;33708;49.466;11.176;2022-12-07T07:22:47;30.53;;;17.47;;
4698;SDS011;33708;49.466;11.176;2022-12-07T07:25:13;31.57;;;17.10;;
4698;SDS011;33708;49.466;11.176;2022-12-07T07:27:40;26.60;;;16.13;;
4698;SDS011;33708;49.466;11.176;2022-12-07T07:30:06;29.43;;;16.07;;
4698;SDS011;33708;49.466;11.176;2022-12-07T07:32:32;29.13;;;17.47;;
4698;SDS011;33708;49.466;11.176;2022-12-07T07:34:58;28.80;;;16.20;;
4698;SDS011;33708;49.466;11.176;2022-12-07T07:37:24;29.73;;;16.10;;
4698;SDS011;33708;49.466;11.176;2022-12-07T07:39:50;30.73;;;16.67;;
4698;SDS011;33708;49.466;11.176;2022-12-07T07:42:16;30.50;;;17.33;;
4698;SDS011;33708;49.466;11.176;2022-12-07T07:44:42;31.27;;;17.03;;
4698;SDS011;33708;49.466;11.176;2022-12-07T07:47:08;30.20;;;16.90;;
4698;SDS011;33708;49.466;11.176;2022-12-07T07:49:33;31.03;;;17.80;;
4698;SDS011;33708;49.466;11.176;2022-12-07T07:51:59;30.20;;;17.20;;
4698;SDS011;33708;49.466;11.176;2022-12-07T07:54:25;34.33;;;17.07;;
4698;SDS011;33708;49.466;11.176;2022-12-07T07:56:51;29.93;;;18.00;;
4698;SDS011;33708;49.466;11.176;2022-12-07T07:59:17;29.70;;;16.37;;
4698;SDS011;33708;49.466;11.176;2022-12-07T08:01:43;30.50;;;16.90;;
4698;SDS011;33708;49.466;11.176;2022-12-07T08:04:09;33.07;;;18.47;;
4698;SDS011;33708;49.466;11.176;2022-12-07T08:06:35;29.17;;;16.77;;
4698;SDS011;33708;49.466;11.176;2022-12-07T08:09:00;28.27;;;16.20;;
4698;SDS011;33708;49.466;11.176;2022-12-07T08:11:27;34.10;;;18.33;;
4698;SDS011;33708;49.466;11.176;2022-12-07T08:13:52;28.87;;;17.20;;
4698;SDS011;33708;49.466;11.176;2022-12-07T08:16:18;31.30;;;16.53;;
4698;SDS011;33708;49.466;11.176;2022-12-07T08:18:43;32.17;;;18.70;;
4698;SDS011;33708;49.466;11.176;2022-12-07T08:21:11;28.83;;;17.43;;
4698;SDS011;33708;49.466;11.176;2022-12-07T08:23:38;34.03;;;18.53;;
4698;SDS011;33708;49.466;11.176;2022-12-07T08:26:04;31.87;;;19.20;;
4698;SDS011;33708;49.466;11.176;2022-12-07T08:28:35;31.63;;;18.17;;
4698;SDS011;33708;49.466;11.176;2022-12-07T08:31:08;31.40;;;18.00;;
4698;SDS011;33708;49.466;11.176;2022-12-07T08:33:39;32.27;;;17.50;;
4698;SDS011;33708;49.466;11.176;2022-12-07T08:36:06;30.30;;;16.77;;
4698;SDS011;33708;49.466;11.176;2022-12-07T08:38:34;31.00;;;18.03;;
4698;SDS011;33708;49.466;11.176;2022-12-07T08:41:00;29.83;;;16.53;;
4698;SDS011;33708;49.466;11.176;2022-12-07T08:43:26;31.53;;;18.10;;
4698;SDS011;33708;49.466;11.176;2022-12-07T08:45:54;32.83;;;19.33;;
4698;SDS011;33708;49.466;11.176;2022-12-07T08:48:53;34.63;;;18.90;;
4698;SDS011;33708;49.466;11.176;2022-12-07T08:51:22;31.40;;;17.57;;
4698;SDS011;33708;49.466;11.176;2022-12-07T08:53:48;33.00;;;18.90;;
4698;SDS011;33708;49.466;11.176;2022-12-07T08:56:16;33.60;;;17.13;;
4698;SDS011;33708;49.466;11.176;2022-12-07T08:58:42;30.00;;;16.80;;
4698;SDS011;33708;49.466;11.176;2022-12-07T09:01:08;36.67;;;18.20;;
4698;SDS011;33708;49.466;11.176;2022-12-07T09:03:34;30.93;;;17.13;;
4698;SDS011;33708;49.466;11.176;2022-12-07T09:06:00;33.33;;;15.57;;
4698;SDS011;33708;49.466;11.176;2022-12-07T09:08:26;35.40;;;17.67;;
4698;SDS011;33708;49.466;11.176;2022-12-07T09:11:05;30.00;;;18.23;;
4698;SDS011;33708;49.466;11.176;2022-12-07T09:13:30;32.83;;;17.20;;
4698;SDS011;33708;49.466;11.176;2022-12-07T09:15:56;28.50;;;16.30;;
4698;SDS011;33708;49.466;11.176;2022-12-07T09:18:22;28.97;;;16.40;;
4698;SDS011;33708;49.466;11.176;2022-12-07T09:20:49;29.83;;;16.17;;
4698;SDS011;33708;49.466;11.176;2022-12-07T09:23:15;30.13;;;16.30;;
4698;SDS011;33708;49.466;11.176;2022-12-07T09:25:41;30.63;;;16.50;;
4698;SDS011;33708;49.466;11.176;2022-12-07T09:28:06;28.10;;;15.50;;
4698;SDS011;33708;49.466;11.176;2022-12-07T09:30:32;29.57;;;16.63;;
4698;SDS011;33708;49.466;11.176;2022-12-07T09:32:58;29.60;;;15.77;;
4698;SDS011;33708;49.466;11.176;2022-12-07T09:35:23;25.83;;;15.00;;
4698;SDS011;33708;49.466;11.176;2022-12-07T09:37:49;23.67;;;13.13;;
4698;SDS011;33708;49.466;11.176;2022-12-07T09:40:16;26.20;;;14.20;;
4698;SDS011;33708;49.466;11.176;2022-12-07T09:42:51;26.40;;;14.77;;
4698;SDS011;33708;49.466;11.176;2022-12-07T09:45:22;24.13;;;14.00;;
4698;SDS011;33708;49.466;11.176;2022-12-07T09:47:50;25.63;;;15.03;;
4698;SDS011;33708;49.466;11.176;2022-12-07T09:50:16;24.20;;;13.90;;
4698;SDS011;33708;49.466;11.176;2022-12-07T09:52:45;25.20;;;14.07;;
4698;SDS011;33708;49.466;11.176;2022-12-07T09:55:14;26.40;;;13.90;;
4698;SDS011;33708;49.466;11.176;2022-12-07T09:57:41;30.63;;;14.60;;
4698;SDS011;33708;49.466;11.176;2022-12-07T10:00:15;22.60;;;13.37;;
4698;SDS011;33708;49.466;11.176;2022-12-07T10:02:55;25.20;;;14.13;;
4698;SDS011;33708;49.466;11.176;2022-12-07T10:05:30;22.47;;;13.03;;
4698;SDS011;33708;49.466;11.176;2022-12-07T10:07:56;25.50;;;13.77;;
4698;SDS011;33708;49.466;11.176;2022-12-07T10:10:28;21.83;;;12.63;;
4698;SDS011;33708;49.466;11.176;2022-12-07T10:15:21;22.63;;;12.83;;
4698;SDS011;33708;49.466;11.176;2022-12-07T10:17:48;21.57;;;12.47;;
4698;SDS011;33708;49.466;11.176;2022-12-07T10:20:25;21.73;;;12.33;;
4698;SDS011;33708;49.466;11.176;2022-12-07T10:22:55;24.33;;;13.37;;
4698;SDS011;33708;49.466;11.176;2022-12-07T10:25:38;23.10;;;13.73;;
4698;SDS011;33708;49.466;11.176;2022-12-07T10:30:57;25.20;;;13.73;;
4698;SDS011;33708;49.466;11.176;2022-12-07T10:33:33;23.63;;;13.23;;
4698;SDS011;33708;49.466;11.176;2022-12-07T10:35:59;23.73;;;12.30;;
4698;SDS011;33708;49.466;11.176;2022-12-07T10:38:28;22.73;;;13.73;;
4698;SDS011;33708;49.466;11.176;2022-12-07T10:41:06;23.30;;;12.90;;
4698;SDS011;33708;49.466;11.176;2022-12-07T10:43:32;22.17;;;12.70;;
4698;SDS011;33708;49.466;11.176;2022-12-07T10:52:00;23.13;;;13.70;;
4698;SDS011;33708;49.466;11.176;2022-12-07T10:57:39;25.43;;;12.40;;
4698;SDS011;33708;49.466;11.176;2022-12-07T11:00:23;22.10;;;12.60;;
4698;SDS011;33708;49.466;11.176;2022-12-07T11:08:18;20.50;;;12.10;;
4698;SDS011;33708;49.466;11.176;2022-12-07T11:11:04;21.70;;;12.13;;
4698;SDS011;33708;49.466;11.176;2022-12-07T11:19:03;21.47;;;12.00;;
4698;SDS011;33708;49.466;11.176;2022-12-07T11:29:40;21.33;;;11.60;;
4698;SDS011;33708;49.466;11.176;2022-12-07T11:37:32;20.23;;;11.57;;
4698;SDS011;33708;49.466;11.176;2022-12-07T11:40:05;19.70;;;12.10;;
4698;SDS011;33708;49.466;11.176;2022-12-07T11:42:49;20.70;;;11.73;;
4698;SDS011;33708;49.466;11.176;2022-12-07T11:45:31;18.50;;;10.77;;
4698;SDS011;33708;49.466;11.176;2022-12-07T11:48:24;22.77;;;11.67;;
4698;SDS011;33708;49.466;11.176;2022-12-07T11:50:54;21.43;;;11.97;;
4698;SDS011;33708;49.466;11.176;2022-12-07T11:56:07;23.13;;;12.20;;
4698;SDS011;33708;49.466;11.176;2022-12-07T12:01:55;22.90;;;13.20;;
4698;SDS011;33708;49.466;11.176;2022-12-07T12:04:34;25.77;;;14.93;;
4698;SDS011;33708;49.466;11.176;2022-12-07T12:07:14;23.30;;;13.80;;
4698;SDS011;33708;49.466;11.176;2022-12-07T12:10:18;22.47;;;13.03;;
4698;SDS011;33708;49.466;11.176;2022-12-07T12:21:07;23.07;;;12.97;;
4698;SDS011;33708;49.466;11.176;2022-12-07T12:26:13;24.00;;;12.90;;
4698;SDS011;33708;49.466;11.176;2022-12-07T12:34:02;23.87;;;12.50;;
4698;SDS011;33708;49.466;11.176;2022-12-07T12:51:53;20.87;;;12.93;;
4698;SDS011;33708;49.466;11.176;2022-12-07T12:54:58;22.60;;;12.77;;
4698;SDS011;33708;49.466;11.176;2022-12-07T12:57:26;19.73;;;11.43;;
4698;SDS011;33708;49.466;11.176;2022-12-07T13:04:53;21.47;;;12.70;;
4698;SDS011;33708;49.466;11.176;2022-12-07T13:15:44;23.30;;;11.80;;
4698;SDS011;33708;49.466;11.176;2022-12-07T13:20:55;23.37;;;11.80;;
4698;SDS011;33708;49.466;11.176;2022-12-07T13:26:22;23.40;;;13.50;;
4698;SDS011;33708;49.466;11.176;2022-12-07T13:33:57;22.17;;;11.97;;
4698;SDS011;33708;49.466;11.176;2022-12-07T13:36:23;20.30;;;11.80;;
4698;SDS011;33708;49.466;11.176;2022-12-07T13:38:58;22.33;;;11.50;;
4698;SDS011;33708;49.466;11.176;2022-12-07T13:41:41;19.97;;;10.77;;
4698;SDS011;33708;49.466;11.176;2022-12-07T13:46:49;21.47;;;11.73;;
4698;SDS011;33708;49.466;11.176;2022-12-07T13:49:20;22.03;;;11.70;;
4698;SDS011;33708;49.466;11.176;2022-12-07T13:51:48;18.50;;;10.60;;
4698;SDS011;33708;49.466;11.176;2022-12-07T13:54:14;20.33;;;11.50;;
4698;SDS011;33708;49.466;11.176;2022-12-07T13:56:40;20.03;;;11.40;;
4698;SDS011;33708;49.466;11.176;2022-12-07T13:59:16;19.80;;;10.60;;
4698;SDS011;33708;49.466;11.176;2022-12-07T14:01:47;18.53;;;10.57;;
4698;SDS011;33708;49.466;11.176;2022-12-07T14:06:57;21.93;;;12.00;;
4698;SDS011;33708;49.466;11.176;2022-12-07T14:09:24;20.13;;;10.67;;
4698;SDS011;33708;49.466;11.176;2022-12-07T14:11:52;21.73;;;11.20;;
4698;SDS011;33708;49.466;11.176;2022-12-07T14:14:21;21.23;;;12.40;;
4698;SDS011;33708;49.466;11.176;2022-12-07T14:17:11;18.20;;;10.90;;
4698;SDS011;33708;49.466;11.176;2022-12-07T14:22:43;26.47;;;11.07;;
4698;SDS011;33708;49.466;11.176;2022-12-07T14:28:02;20.70;;;11.70;;
4698;SDS011;33708;49.466;11.176;2022-12-07T14:30:32;21.07;;;11.80;;
4698;SDS011;33708;49.466;11.176;2022-12-07T14:33:00;21.43;;;10.83;;
4698;SDS011;33708;49.466;11.176;2022-12-07T14:35:27;19.53;;;10.40;;
4698;SDS011;33708;49.466;11.176;2022-12-07T14:37:54;21.20;;;10.80;;
4698;SDS011;33708;49.466;11.176;2022-12-07T14:40:20;20.10;;;11.40;;
4698;SDS011;33708;49.466;11.176;2022-12-07T14:43:02;18.03;;;9.60;;
4698;SDS011;33708;49.466;11.176;2022-12-07T14:45:36;21.37;;;9.43;;
4698;SDS011;33708;49.466;11.176;2022-12-07T14:48:03;18.30;;;10.57;;
4698;SDS011;33708;49.466;11.176;2022-12-07T14:50:29;19.73;;;9.37;;
4698;SDS011;33708;49.466;11.176;2022-12-07T14:52:55;18.13;;;9.90;;
4698;SDS011;33708;49.466;11.176;2022-12-07T14:55:25;19.97;;;9.40;;
4698;SDS011;33708;49.466;11.176;2022-12-07T14:57:53;15.10;;;7.40;;
4698;SDS011;33708;49.466;11.176;2022-12-07T15:00:19;17.10;;;7.73;;
4698;SDS011;33708;49.466;11.176;2022-12-07T15:02:47;15.63;;;6.07;;
4698;SDS011;33708;49.466;11.176;2022-12-07T15:05:13;12.93;;;5.60;;
4698;SDS011;33708;49.466;11.176;2022-12-07T15:07:40;10.67;;;4.00;;
4698;SDS011;33708;49.466;11.176;2022-12-07T15:10:08;10.50;;;4.43;;
4698;SDS011;33708;49.466;11.176;2022-12-07T15:12:41;9.00;;;3.70;;
4698;SDS011;33708;49.466;11.176;2022-12-07T15:15:07;11.80;;;5.03;;
4698;SDS011;33708;49.466;11.176;2022-12-07T15:17:33;12.40;;;4.93;;
4698;SDS011;33708;49.466;11.176;2022-12-07T15:19:59;12.70;;;6.13;;
4698;SDS011;33708;49.466;11.176;2022-12-07T15:22:25;12.67;;;5.93;;
4698;SDS011;33708;49.466;11.176;2022-12-07T15:24:50;12.57;;;6.07;;
4698;SDS011;33708;49.466;11.176;2022-12-07T15:27:16;16.33;;;7.13;;
4698;SDS011;33708;49.466;11.176;2022-12-07T15:29:41;18.67;;;8.40;;
4698;SDS011;33708;49.466;11.176;2022-12-07T15:32:08;16.87;;;7.80;;
4698;SDS011;33708;49.466;11.176;2022-12-07T15:34:34;16.83;;;9.17;;
4698;SDS011;33708;49.466;11.176;2022-12-07T15:37:00;23.57;;;8.83;;
4698;SDS011;33708;49.466;11.176;2022-12-07T15:39:25;19.90;;;9.60;;
4698;SDS011;33708;49.466;11.176;2022-12-07T15:41:51;22.60;;;9.20;;
4698;SDS011;33708;49.466;11.176;2022-12-07T15:44:16;19.10;;;9.60;;
4698;SDS011;33708;49.466;11.176;2022-12-07T15:47:00;32.53;;;11.20;;
4698;SDS011;33708;49.466;11.176;2022-12-07T15:49:26;20.90;;;10.17;;
4698;SDS011;33708;49.466;11.176;2022-12-07T15:51:52;20.97;;;11.47;;
4698;SDS011;33708;49.466;11.176;2022-12-07T15:56:48;21.23;;;12.03;;
4698;SDS011;33708;49.466;11.176;2022-12-07T15:59:14;18.73;;;11.23;;
4698;SDS011;33708;49.466;11.176;2022-12-07T16:01:40;24.63;;;11.90;;
4698;SDS011;33708;49.466;11.176;2022-12-07T16:04:06;27.30;;;14.87;;
4698;SDS011;33708;49.466;11.176;2022-12-07T16:06:31;27.30;;;14.57;;
4698;SDS011;33708;49.466;11.176;2022-12-07T16:08:57;23.73;;;14.53;;
4698;SDS011;33708;49.466;11.176;2022-12-07T16:11:23;25.33;;;13.77;;
4698;SDS011;33708;49.466;11.176;2022-12-07T16:13:49;31.13;;;14.33;;
4698;SDS011;33708;49.466;11.176;2022-12-07T16:16:15;25.43;;;14.57;;
4698;SDS011;33708;49.466;11.176;2022-12-07T16:18:43;27.80;;;14.10;;
4698;SDS011;33708;49.466;11.176;2022-12-07T16:21:10;23.67;;;13.53;;
4698;SDS011;33708;49.466;11.176;2022-12-07T16:23:36;31.30;;;15.50;;
4698;SDS011;33708;49.466;11.176;2022-12-07T16:26:05;27.27;;;14.13;;
4698;SDS011;33708;49.466;11.176;2022-12-07T16:28:36;26.60;;;14.67;;
4698;SDS011;33708;49.466;11.176;2022-12-07T16:31:03;29.33;;;16.23;;
4698;SDS011;33708;49.466;11.176;2022-12-07T16:33:29;30.80;;;15.10;;
4698;SDS011;33708;49.466;11.176;2022-12-07T16:35:55;34.13;;;15.93;;
4698;SDS011;33708;49.466;11.176;2022-12-07T16:38:20;29.53;;;15.93;;
4698;SDS011;33708;49.466;11.176;2022-12-07T16:40:46;32.27;;;15.30;;
4698;SDS011;33708;49.466;11.176;2022-12-07T16:43:13;26.60;;;14.03;;
4698;SDS011;33708;49.466;11.176;2022-12-07T16:45:39;29.93;;;17.77;;
4698;SDS011;33708;49.466;11.176;2022-12-07T16:48:04;29.00;;;17.07;;
4698;SDS011;33708;49.466;11.176;2022-12-07T16:50:30;30.03;;;16.03;;
4698;SDS011;33708;49.466;11.176;2022-12-07T16:52:56;26.83;;;16.07;;
4698;SDS011;33708;49.466;11.176;2022-12-07T16:55:21;23.43;;;14.33;;
4698;SDS011;33708;49.466;11.176;2022-12-07T16:57:47;26.10;;;15.90;;
4698;SDS011;33708;49.466;11.176;2022-12-07T17:00:13;29.33;;;15.00;;
4698;SDS011;33708;49.466;11.176;2022-12-07T17:02:39;30.90;;;16.27;;
4698;SDS011;33708;49.466;11.176;2022-12-07T17:05:05;32.43;;;16.87;;